Time;durP1;ratioP1;P1;durP2;ratioP2;P2;SDS_P1;SDS_P2;PMS_P1;PMS_P2;Temp;Humidity;BMP_temperature;BMP_pressure;BME280_temperature;BME280_humidity;BME280_pressure;Samples;Min_cycle;Max_cycle;Signal;HPM_P1;HPM_P2
2022/07/26 00:01:59;;;;;;;10.55;5.75;;;25.40;99.90;;;;;;6153230;23;20016;-74
2022/07/26 00:04:26;;;;;;;10.77;5.75;;;25.40;99.90;;;;;;6153732;23;20017;-75
2022/07/26 00:06:52;;;;;;;9.05;5.57;;;25.40;99.90;;;;;;6118865;23;20334;-74
2022/07/26 00:09:17;;;;;;;12.23;5.63;;;25.30;99.90;;;;;;6179723;23;20027;-75
2022/07/26 00:11:43;;;;;;;8.65;5.75;;;25.30;99.90;;;;;;6181349;23;20385;-74
2022/07/26 00:14:10;;;;;;;8.88;5.57;;;25.40;99.90;;;;;;6144505;23;20024;-74
2022/07/26 00:16:36;;;;;;;9.27;5.97;;;25.40;99.90;;;;;;6155072;23;20445;-75
2022/07/26 00:19:03;;;;;;;12.00;5.72;;;25.40;99.90;;;;;;6179976;23;20013;-74
2022/07/26 00:21:30;;;;;;;11.18;5.50;;;25.40;99.90;;;;;;6180439;23;20084;-75
2022/07/26 00:23:56;;;;;;;9.32;5.22;;;25.50;99.90;;;;;;6180732;23;20013;-74
2022/07/26 00:26:22;;;;;;;11.52;5.55;;;25.40;99.90;;;;;;6178629;23;20009;-74
2022/07/26 00:28:48;;;;;;;10.13;5.47;;;25.40;99.90;;;;;;6181296;23;20318;-74
2022/07/26 00:31:15;;;;;;;12.18;5.88;;;25.40;99.90;;;;;;6178991;23;20448;-75
2022/07/26 00:33:41;;;;;;;9.93;5.80;;;25.50;99.90;;;;;;6180070;23;20731;-74
2022/07/26 00:36:07;;;;;;;14.82;6.20;;;25.40;99.90;;;;;;6177286;23;20017;-76
2022/07/26 00:38:33;;;;;;;12.48;5.93;;;25.40;99.90;;;;;;6153596;23;20468;-75
2022/07/26 00:40:59;;;;;;;11.93;5.88;;;25.30;99.90;;;;;;6179292;23;20013;-74
2022/07/26 00:43:27;;;;;;;11.95;5.82;;;25.30;99.90;;;;;;6117620;23;20023;-74
2022/07/26 00:45:53;;;;;;;11.77;5.78;;;25.30;99.90;;;;;;6153262;23;20013;-75
2022/07/26 00:48:19;;;;;;;13.20;5.85;;;25.30;99.90;;;;;;6179438;23;20013;-75
2022/07/26 00:50:45;;;;;;;13.40;5.72;;;25.30;99.90;;;;;;6153959;23;20024;-74
2022/07/26 00:53:11;;;;;;;11.90;5.80;;;25.30;99.90;;;;;;6127702;23;20044;-74
2022/07/26 00:55:37;;;;;;;11.43;6.32;;;25.20;99.90;;;;;;6179952;23;20009;-74
2022/07/26 00:58:03;;;;;;;13.27;5.60;;;25.30;99.90;;;;;;6179576;23;20001;-75
2022/07/26 01:00:29;;;;;;;11.30;5.93;;;25.20;99.90;;;;;;6153895;23;20019;-75
2022/07/26 01:02:55;;;;;;;12.50;5.90;;;25.20;99.90;;;;;;6182222;23;20013;-74
2022/07/26 01:05:23;;;;;;;13.65;5.68;;;25.20;99.90;;;;;;6182594;23;20060;-74
2022/07/26 01:07:49;;;;;;;9.65;5.55;;;25.20;99.90;;;;;;6156757;23;20016;-74
2022/07/26 01:10:16;;;;;;;11.68;5.25;;;25.20;99.90;;;;;;6180158;23;20116;-74
2022/07/26 01:12:42;;;;;;;15.85;6.18;;;25.20;99.90;;;;;;6119330;23;20009;-75
2022/07/26 01:15:11;;;;;;;14.93;6.32;;;25.20;99.90;;;;;;6154399;23;20024;-75
2022/07/26 01:17:37;;;;;;;10.82;5.53;;;25.20;99.90;;;;;;6191624;23;20009;-75
2022/07/26 01:20:05;;;;;;;14.05;5.75;;;25.10;99.90;;;;;;6118557;23;20017;-75
2022/07/26 01:22:32;;;;;;;12.55;6.43;;;25.10;99.90;;;;;;6193091;23;20017;-75
2022/07/26 01:24:59;;;;;;;13.45;6.00;;;25.10;99.90;;;;;;6155433;23;20032;-75
2022/07/26 01:27:25;;;;;;;11.88;5.45;;;25.10;99.90;;;;;;6180208;23;20072;-75
2022/07/26 01:29:51;;;;;;;18.95;6.70;;;25.10;99.90;;;;;;6181449;23;20013;-74
2022/07/26 01:32:18;;;;;;;13.95;6.03;;;25.10;99.90;;;;;;6141888;23;20023;-75
2022/07/26 01:34:44;;;;;;;12.00;5.97;;;25.10;99.90;;;;;;6154394;23;20063;-75
2022/07/26 01:37:10;;;;;;;12.40;5.80;;;25.10;99.90;;;;;;6153388;23;20024;-74
2022/07/26 01:39:36;;;;;;;15.95;6.43;;;25.10;99.90;;;;;;6181084;23;20009;-74
2022/07/26 01:42:09;;;;;;;13.48;5.82;;;25.10;99.90;;;;;;6180420;23;20013;-75
2022/07/26 01:44:36;;;;;;;10.95;6.13;;;25.10;99.90;;;;;;6164893;23;20013;-74
2022/07/26 01:47:02;;;;;;;11.85;6.43;;;25.10;99.90;;;;;;6153420;23;20024;-75
2022/07/26 01:49:27;;;;;;;17.25;6.07;;;25.10;99.90;;;;;;6180273;23;20017;-75
2022/07/26 01:51:53;;;;;;;10.77;5.55;;;25.10;99.90;;;;;;6181641;23;20017;-75
2022/07/26 01:54:20;;;;;;;12.60;6.20;;;25.00;99.90;;;;;;6132910;23;20017;-75
2022/07/26 01:56:47;;;;;;;11.98;6.18;;;25.00;99.90;;;;;;6174430;23;20388;-75
2022/07/26 01:59:13;;;;;;;12.95;5.85;;;25.00;99.90;;;;;;6153397;23;20393;-75
2022/07/26 02:01:39;;;;;;;13.48;6.22;;;25.00;99.90;;;;;;6155087;23;20024;-75
2022/07/26 02:04:05;;;;;;;12.27;5.95;;;25.00;99.90;;;;;;6154155;23;20021;-75
2022/07/26 02:06:31;;;;;;;12.38;6.20;;;25.00;99.90;;;;;;6182350;23;20043;-74
2022/07/26 02:08:57;;;;;;;17.50;6.45;;;24.90;99.90;;;;;;6155984;23;20020;-74
2022/07/26 02:11:25;;;;;;;15.98;6.05;;;24.90;99.90;;;;;;6151981;23;20013;-74
2022/07/26 02:13:51;;;;;;;12.50;5.82;;;24.90;99.90;;;;;;6141174;23;20036;-74
2022/07/26 02:16:18;;;;;;;13.10;6.60;;;24.90;99.90;;;;;;6117879;23;20009;-74
2022/07/26 02:18:43;;;;;;;12.07;5.53;;;25.00;99.90;;;;;;6155479;23;20009;-74
2022/07/26 02:21:09;;;;;;;12.20;5.68;;;24.90;99.90;;;;;;6144547;23;20017;-74
2022/07/26 02:23:35;;;;;;;10.52;5.93;;;25.00;99.90;;;;;;6144735;23;20013;-74
2022/07/26 02:26:02;;;;;;;15.55;6.00;;;25.00;99.90;;;;;;6155602;23;20016;-75
2022/07/26 02:28:29;;;;;;;10.20;5.50;;;25.10;99.90;;;;;;6153759;23;20009;-73
2022/07/26 02:30:54;;;;;;;11.00;6.03;;;25.10;99.90;;;;;;6156720;23;20009;-74
2022/07/26 02:33:20;;;;;;;13.75;6.30;;;25.10;99.90;;;;;;6154880;22;20084;-76
2022/07/26 02:35:47;;;;;;;9.52;6.07;;;25.20;99.90;;;;;;6198405;23;20034;-74
2022/07/26 02:38:15;;;;;;;11.10;5.32;;;25.20;99.90;;;;;;6156064;23;20037;-74
2022/07/26 02:40:41;;;;;;;8.13;5.35;;;25.20;99.90;;;;;;6154617;23;20468;-74
2022/07/26 02:43:09;;;;;;;9.88;5.47;;;25.20;99.90;;;;;;6152834;22;20063;-74
2022/07/26 02:45:35;;;;;;;9.23;5.60;;;25.20;99.90;;;;;;6203556;23;20335;-75
2022/07/26 02:48:01;;;;;;;8.95;5.38;;;25.20;99.90;;;;;;6182433;23;20025;-75
2022/07/26 02:50:28;;;;;;;10.45;5.93;;;25.30;99.90;;;;;;6153243;23;20009;-74
2022/07/26 02:52:55;;;;;;;11.32;5.90;;;25.20;99.90;;;;;;6111048;23;20009;-75
2022/07/26 02:55:24;;;;;;;13.88;6.05;;;25.20;99.90;;;;;;6153376;23;20012;-74
2022/07/26 02:57:49;;;;;;;10.13;6.30;;;25.10;99.90;;;;;;6155786;23;20009;-74
2022/07/26 03:00:19;;;;;;;11.88;6.35;;;25.10;99.90;;;;;;6179141;23;20100;-75
2022/07/26 03:02:47;;;;;;;10.50;7.38;;;25.10;99.90;;;;;;6164913;23;20048;-75
2022/07/26 03:05:13;;;;;;;13.18;6.65;;;25.10;99.90;;;;;;6152034;23;20009;-75
2022/07/26 03:07:39;;;;;;;10.82;7.03;;;25.00;99.90;;;;;;6131309;23;20016;-76
2022/07/26 03:10:07;;;;;;;11.90;6.40;;;25.00;99.90;;;;;;6127661;23;20544;-75
2022/07/26 03:12:33;;;;;;;8.63;6.65;;;25.00;99.90;;;;;;6158418;23;20009;-76
2022/07/26 03:14:59;;;;;;;10.00;6.93;;;25.00;99.90;;;;;;6154489;23;20009;-74
2022/07/26 03:17:26;;;;;;;13.60;7.55;;;25.00;99.90;;;;;;6179620;23;20009;-75
2022/07/26 03:19:52;;;;;;;13.30;7.18;;;25.00;99.90;;;;;;6177678;23;20024;-74
2022/07/26 03:22:19;;;;;;;13.38;7.38;;;25.00;99.90;;;;;;6178316;23;20184;-75
2022/07/26 03:24:46;;;;;;;13.57;7.97;;;25.00;99.90;;;;;;6178530;23;20116;-74
2022/07/26 03:27:12;;;;;;;11.68;7.78;;;25.10;99.90;;;;;;6178895;23;20375;-75
2022/07/26 03:29:39;;;;;;;12.20;7.70;;;25.10;99.90;;;;;;6181190;23;20334;-74
2022/07/26 03:32:05;;;;;;;15.90;8.48;;;25.10;99.90;;;;;;6179506;23;20438;-75
2022/07/26 03:34:31;;;;;;;11.38;7.88;;;25.10;99.90;;;;;;6180952;23;20101;-76
2022/07/26 03:36:57;;;;;;;11.75;7.90;;;25.10;99.90;;;;;;6154201;23;20033;-75
2022/07/26 03:39:24;;;;;;;10.23;7.72;;;25.10;99.90;;;;;;6164110;23;20036;-75
2022/07/26 03:41:50;;;;;;;15.30;7.97;;;25.10;99.90;;;;;;6180230;23;20449;-75
2022/07/26 03:44:15;;;;;;;16.40;8.38;;;25.10;99.90;;;;;;6153178;23;20021;-74
2022/07/26 03:46:41;;;;;;;14.38;8.43;;;25.10;99.90;;;;;;6153996;23;20573;-75
2022/07/26 03:49:08;;;;;;;12.98;8.77;;;25.00;99.90;;;;;;6180239;23;20033;-75
2022/07/26 03:51:33;;;;;;;12.05;8.30;;;25.10;99.90;;;;;;6154194;23;20016;-75
2022/07/26 03:54:00;;;;;;;12.48;7.82;;;25.00;99.90;;;;;;6155510;23;20017;-75
2022/07/26 03:56:32;;;;;;;13.63;8.63;;;25.10;99.90;;;;;;6152296;23;20464;-74
2022/07/26 03:59:08;;;;;;;10.00;7.97;;;25.00;99.90;;;;;;6180855;23;20017;-75
2022/07/26 04:01:40;;;;;;;13.23;8.40;;;25.00;99.90;;;;;;6153020;23;20092;-75
2022/07/26 04:04:07;;;;;;;13.07;7.60;;;25.00;99.90;;;;;;6152695;23;20428;-74
2022/07/26 04:06:33;;;;;;;13.95;7.75;;;24.90;99.90;;;;;;6153530;23;20072;-75
2022/07/26 04:08:58;;;;;;;14.65;7.65;;;24.80;99.90;;;;;;6154485;23;20013;-75
2022/07/26 04:11:24;;;;;;;9.38;6.63;;;24.70;99.90;;;;;;6181252;23;20020;-74
2022/07/26 04:13:50;;;;;;;10.13;6.97;;;24.70;99.90;;;;;;6182290;23;20009;-75
2022/07/26 04:16:16;;;;;;;9.73;6.07;;;24.60;99.90;;;;;;6154802;23;20013;-74
2022/07/26 04:18:42;;;;;;;9.57;6.07;;;24.50;99.90;;;;;;6181002;23;20008;-75
2022/07/26 04:21:08;;;;;;;9.73;5.90;;;24.50;99.90;;;;;;6179433;23;20017;-74
2022/07/26 04:23:34;;;;;;;9.10;5.50;;;24.50;99.90;;;;;;6180728;23;20056;-75
2022/07/26 04:26:00;;;;;;;10.73;5.57;;;24.40;99.90;;;;;;6154745;23;20017;-75
2022/07/26 04:28:27;;;;;;;9.90;5.53;;;24.40;99.90;;;;;;6178877;23;20017;-74
2022/07/26 04:30:54;;;;;;;14.05;5.60;;;24.30;99.90;;;;;;6119116;23;20001;-75
2022/07/26 04:33:20;;;;;;;10.63;5.03;;;24.30;99.90;;;;;;6153483;23;20407;-75
2022/07/26 04:35:46;;;;;;;11.20;4.50;;;24.40;99.90;;;;;;6181770;23;20151;-74
2022/07/26 04:38:13;;;;;;;9.23;4.35;;;24.40;99.90;;;;;;6180684;23;20036;-75
2022/07/26 04:40:38;;;;;;;9.88;4.05;;;24.40;99.90;;;;;;6181164;23;20009;-76
2022/07/26 04:43:05;;;;;;;9.48;4.57;;;24.40;99.90;;;;;;6153797;23;20011;-74
2022/07/26 04:45:30;;;;;;;9.43;4.50;;;24.50;99.90;;;;;;6180662;23;20009;-75
2022/07/26 04:47:57;;;;;;;9.63;4.18;;;24.40;99.90;;;;;;6154557;23;20009;-74
2022/07/26 04:50:23;;;;;;;7.03;4.30;;;24.40;99.90;;;;;;6180454;23;20088;-75
2022/07/26 04:52:50;;;;;;;10.05;4.70;;;24.30;99.90;;;;;;6181832;23;20005;-74
2022/07/26 04:55:17;;;;;;;17.02;4.80;;;24.40;99.90;;;;;;6181255;23;20120;-74
2022/07/26 04:57:44;;;;;;;15.38;5.25;;;24.40;99.90;;;;;;6180882;23;20436;-74
2022/07/26 05:00:12;;;;;;;11.05;5.45;;;24.40;99.90;;;;;;6152587;23;20013;-75
2022/07/26 05:02:38;;;;;;;9.05;5.35;;;24.50;99.90;;;;;;6154396;23;20145;-76
2022/07/26 05:05:07;;;;;;;11.38;4.88;;;24.60;99.90;;;;;;6179650;23;20509;-74
2022/07/26 05:07:46;;;;;;;9.13;4.72;;;24.70;99.90;;;;;;6135426;23;20037;-74
2022/07/26 05:10:14;;;;;;;12.23;4.30;;;24.80;99.90;;;;;;6139240;23;20017;-74
2022/07/26 05:12:40;;;;;;;8.52;4.10;;;24.80;99.90;;;;;;6155523;23;20017;-74
2022/07/26 05:15:07;;;;;;;7.28;4.05;;;24.90;99.90;;;;;;6181403;23;20016;-75
2022/07/26 05:17:32;;;;;;;5.93;3.58;;;25.00;99.90;;;;;;6154837;23;20089;-75
2022/07/26 05:19:58;;;;;;;7.95;3.20;;;25.10;99.90;;;;;;6180664;23;20047;-74
2022/07/26 05:22:24;;;;;;;8.18;2.97;;;25.20;99.90;;;;;;6152923;23;20013;-74
2022/07/26 05:24:50;;;;;;;7.30;3.50;;;25.30;99.90;;;;;;6158594;23;20068;-74
2022/07/26 05:27:15;;;;;;;9.40;3.72;;;25.30;99.90;;;;;;6181924;23;20017;-74
2022/07/26 05:29:41;;;;;;;9.50;3.60;;;25.40;99.90;;;;;;6153758;23;20013;-75
2022/07/26 05:32:07;;;;;;;7.55;3.58;;;25.40;99.90;;;;;;6152477;23;20019;-74
2022/07/26 05:34:33;;;;;;;7.03;3.38;;;25.50;99.90;;;;;;6129859;23;20100;-74
2022/07/26 05:36:58;;;;;;;7.18;3.75;;;25.50;99.90;;;;;;6153638;23;20013;-74
2022/07/26 05:39:24;;;;;;;10.30;4.10;;;25.50;99.90;;;;;;6114431;23;20016;-75
2022/07/26 05:41:50;;;;;;;7.50;3.92;;;25.60;99.90;;;;;;6180127;23;20102;-74
2022/07/26 05:44:15;;;;;;;9.55;3.97;;;25.60;99.90;;;;;;6153249;23;20027;-75
2022/07/26 05:46:41;;;;;;;8.48;4.07;;;25.70;99.90;;;;;;6154119;23;20013;-74
2022/07/26 05:49:07;;;;;;;11.38;4.30;;;25.80;99.90;;;;;;6179760;23;20060;-75
2022/07/26 05:51:33;;;;;;;9.52;4.25;;;25.90;99.90;;;;;;6154429;23;20054;-75
2022/07/26 05:53:59;;;;;;;8.30;4.22;;;26.00;99.90;;;;;;6154195;23;20420;-75
2022/07/26 05:56:24;;;;;;;7.78;3.67;;;26.00;99.90;;;;;;6178845;23;20019;-76
2022/07/26 05:58:50;;;;;;;9.00;3.83;;;26.00;99.90;;;;;;6154059;23;20096;-74
2022/07/26 06:01:16;;;;;;;8.75;3.28;;;26.00;99.90;;;;;;6179634;23;20021;-76
2022/07/26 06:03:42;;;;;;;8.23;3.60;;;26.00;99.90;;;;;;6181212;23;20029;-75
2022/07/26 06:06:08;;;;;;;9.15;2.83;;;26.00;99.90;;;;;;6153078;23;20021;-74
2022/07/26 06:08:35;;;;;;;10.77;3.30;;;26.00;99.90;;;;;;6180293;23;20291;-75
2022/07/26 06:11:01;;;;;;;6.70;3.00;;;26.10;99.90;;;;;;6179919;23;20009;-75
2022/07/26 06:13:27;;;;;;;6.63;3.00;;;26.10;99.90;;;;;;6183115;23;20008;-75
2022/07/26 06:15:53;;;;;;;6.78;2.80;;;26.20;99.90;;;;;;6211367;22;20043;-75
2022/07/26 06:18:18;;;;;;;7.40;2.55;;;26.20;99.90;;;;;;6182558;23;20016;-74
2022/07/26 06:20:46;;;;;;;5.32;2.67;;;26.20;99.90;;;;;;6183365;23;20012;-74
2022/07/26 06:23:12;;;;;;;6.50;2.92;;;26.20;99.90;;;;;;6184391;23;20013;-75
2022/07/26 06:25:38;;;;;;;10.95;3.05;;;26.20;99.90;;;;;;6188883;23;20019;-74
2022/07/26 06:28:06;;;;;;;9.18;2.58;;;26.20;99.90;;;;;;6158964;23;20048;-74
2022/07/26 06:30:32;;;;;;;7.05;2.45;;;26.30;99.90;;;;;;6154089;23;20033;-75
2022/07/26 06:32:58;;;;;;;7.82;2.65;;;26.30;99.90;;;;;;6182713;23;20029;-76
2022/07/26 06:35:24;;;;;;;8.02;2.85;;;26.30;99.90;;;;;;6178662;23;20369;-75
2022/07/26 06:37:49;;;;;;;10.75;2.80;;;26.30;99.90;;;;;;6140293;23;20037;-76
2022/07/26 06:40:15;;;;;;;9.40;2.90;;;26.30;99.90;;;;;;6152660;23;20016;-75
2022/07/26 06:42:41;;;;;;;11.23;2.83;;;26.30;99.90;;;;;;6153608;23;20388;-75
2022/07/26 06:45:08;;;;;;;9.95;3.00;;;26.30;99.90;;;;;;6179333;23;20016;-75
2022/07/26 06:47:35;;;;;;;6.00;2.70;;;26.30;99.90;;;;;;6131332;23;20430;-76
2022/07/26 06:50:02;;;;;;;6.35;2.40;;;26.20;99.90;;;;;;6155791;23;20439;-75
2022/07/26 06:52:28;;;;;;;8.70;2.65;;;26.20;99.90;;;;;;6192734;23;20012;-76
2022/07/26 06:54:53;;;;;;;6.03;2.22;;;26.20;99.90;;;;;;6154860;23;20449;-76
2022/07/26 06:57:20;;;;;;;7.80;2.40;;;26.20;99.90;;;;;;6152702;23;20017;-76
2022/07/26 06:59:46;;;;;;;5.18;2.22;;;26.10;99.90;;;;;;6154515;23;20453;-75
2022/07/26 07:02:11;;;;;;;8.35;2.20;;;26.00;99.90;;;;;;6180287;23;20027;-74
2022/07/26 07:04:37;;;;;;;8.02;2.30;;;26.00;99.90;;;;;;6181448;23;20083;-74
2022/07/26 07:07:05;;;;;;;6.90;2.50;;;26.00;99.90;;;;;;6178793;23;20123;-75
2022/07/26 07:09:32;;;;;;;13.35;2.65;;;26.10;99.90;;;;;;6138331;23;20088;-75
2022/07/26 07:11:58;;;;;;;4.70;2.33;;;26.20;99.90;;;;;;6177286;23;20028;-75
2022/07/26 07:14:24;;;;;;;6.70;2.03;;;26.30;99.90;;;;;;6152895;23;20358;-76
2022/07/26 07:16:51;;;;;;;6.38;2.03;;;26.30;99.90;;;;;;6180374;23;20087;-75
2022/07/26 07:19:17;;;;;;;3.35;2.10;;;26.30;99.90;;;;;;6178491;23;20017;-75
2022/07/26 07:21:42;;;;;;;8.85;2.00;;;26.30;99.90;;;;;;6152958;23;20352;-74
2022/07/26 07:24:08;;;;;;;10.57;2.33;;;26.30;99.90;;;;;;6177911;23;20036;-75
2022/07/26 07:26:34;;;;;;;10.75;2.58;;;26.30;99.90;;;;;;6180093;23;20084;-75
2022/07/26 07:29:00;;;;;;;7.20;2.53;;;26.40;99.90;;;;;;6154759;23;20041;-74
2022/07/26 07:31:26;;;;;;;4.25;2.47;;;26.50;99.90;;;;;;6177780;23;20077;-75
2022/07/26 07:33:52;;;;;;;8.63;2.65;;;26.50;99.90;;;;;;6180692;23;20005;-75
2022/07/26 07:36:18;;;;;;;6.38;2.85;;;26.50;99.90;;;;;;6154560;23;20009;-74
2022/07/26 07:38:44;;;;;;;6.05;2.60;;;26.50;99.90;;;;;;6180892;23;20092;-75
2022/07/26 07:41:10;;;;;;;5.63;2.83;;;26.60;99.90;;;;;;6153528;23;20063;-74
2022/07/26 07:43:36;;;;;;;5.68;2.55;;;26.70;99.90;;;;;;6181598;23;20035;-75
2022/07/26 07:46:03;;;;;;;8.30;2.70;;;26.70;99.90;;;;;;6154627;23;20017;-76
2022/07/26 07:48:29;;;;;;;9.00;2.75;;;27.00;99.90;;;;;;6183104;23;20317;-72
2022/07/26 07:50:55;;;;;;;10.13;3.13;;;27.20;99.90;;;;;;6153929;23;20013;-72
2022/07/26 07:53:22;;;;;;;5.30;3.05;;;27.30;99.90;;;;;;6153712;23;20009;-72
2022/07/26 07:55:48;;;;;;;6.20;2.88;;;27.50;99.90;;;;;;6154673;23;20008;-72
2022/07/26 07:58:19;;;;;;;7.03;2.50;;;27.40;99.90;;;;;;6179517;23;20009;-71
2022/07/26 08:00:45;;;;;;;7.55;2.70;;;27.50;99.90;;;;;;6181294;23;20013;-72
2022/07/26 08:03:11;;;;;;;8.48;3.00;;;27.50;99.90;;;;;;6179681;23;20021;-72
2022/07/26 08:05:37;;;;;;;5.68;2.58;;;27.70;99.90;;;;;;6180319;23;20012;-71
2022/07/26 08:08:03;;;;;;;8.55;3.40;;;27.60;99.90;;;;;;6152624;23;20036;-71
2022/07/26 08:10:29;;;;;;;9.75;2.60;;;27.60;99.90;;;;;;6154645;23;20005;-73
2022/07/26 08:12:56;;;;;;;9.70;3.17;;;27.50;99.90;;;;;;6153373;23;20071;-71
2022/07/26 08:15:22;;;;;;;6.53;2.97;;;27.60;99.90;;;;;;6152302;23;21584;-71
2022/07/26 08:17:49;;;;;;;8.38;3.08;;;27.60;99.90;;;;;;6153115;23;20339;-71
2022/07/26 08:20:14;;;;;;;13.43;3.25;;;27.80;99.90;;;;;;6179790;23;20524;-72
2022/07/26 08:22:42;;;;;;;7.75;3.47;;;28.10;99.90;;;;;;6152931;23;20005;-72
2022/07/26 08:25:08;;;;;;;7.60;3.80;;;28.30;99.90;;;;;;6131801;23;20025;-71
2022/07/26 08:27:34;;;;;;;15.63;3.67;;;28.40;99.90;;;;;;6153252;23;20460;-72
2022/07/26 08:30:00;;;;;;;9.02;3.80;;;28.40;99.90;;;;;;6155189;23;20009;-72
2022/07/26 08:32:26;;;;;;;11.25;3.40;;;28.50;99.90;;;;;;6181625;23;20020;-72
2022/07/26 08:34:52;;;;;;;10.13;4.70;;;28.50;99.90;;;;;;6157167;23;20009;-71
2022/07/26 08:37:18;;;;;;;12.27;4.60;;;28.80;99.90;;;;;;6154136;23;20040;-72
2022/07/26 08:39:45;;;;;;;16.92;4.90;;;28.80;99.90;;;;;;6183483;23;20035;-72
2022/07/26 08:42:17;;;;;;;8.27;4.53;;;28.60;99.90;;;;;;6180329;23;20021;-71
2022/07/26 08:44:46;;;;;;;12.98;4.95;;;28.70;99.90;;;;;;6157410;23;20310;-76
2022/07/26 08:47:18;;;;;;;9.25;4.57;;;29.20;99.90;;;;;;6184043;23;20037;-75
2022/07/26 08:49:44;;;;;;;7.85;4.30;;;29.40;99.90;;;;;;6184528;23;20009;-72
2022/07/26 08:52:12;;;;;;;9.77;3.90;;;29.70;99.90;;;;;;6181281;23;20491;-73
2022/07/26 08:54:46;;;;;;;7.30;3.72;;;29.50;99.90;;;;;;6134458;23;20520;-72
2022/07/26 08:57:14;;;;;;;10.40;3.55;;;29.70;99.90;;;;;;6183484;23;20017;-73
2022/07/26 08:59:40;;;;;;;16.60;4.13;;;29.80;99.90;;;;;;6158381;23;20016;-74
2022/07/26 09:02:10;;;;;;;9.50;3.80;;;31.00;99.90;;;;;;6156507;23;20117;-73
2022/07/26 09:04:45;;;;;;;5.45;3.72;;;32.10;97.90;;;;;;6144622;23;21014;-73
2022/07/26 09:07:17;;;;;;;10.63;3.90;;;32.00;98.10;;;;;;6157229;23;20444;-72
2022/07/26 09:10:01;;;;;;;9.00;4.10;;;31.80;97.90;;;;;;6181607;23;20275;-73
2022/07/26 09:12:29;;;;;;;7.43;4.32;;;31.60;98.40;;;;;;6181500;23;20020;-72
2022/07/26 09:14:56;;;;;;;9.45;4.75;;;31.90;99.50;;;;;;6155830;23;20393;-73
2022/07/26 09:17:35;;;;;;;15.18;4.57;;;30.50;99.90;;;;;;6181525;23;20396;-74
2022/07/26 09:20:08;;;;;;;8.77;4.22;;;30.70;99.90;;;;;;6180485;23;20468;-72
2022/07/26 09:22:38;;;;;;;10.70;4.28;;;31.60;99.20;;;;;;6190306;23;20011;-73
2022/07/26 09:25:20;;;;;;;11.25;4.50;;;32.50;97.60;;;;;;6166352;23;20020;-72
2022/07/26 09:27:46;;;;;;;10.10;4.35;;;32.10;98.30;;;;;;6153163;23;20459;-71
2022/07/26 09:30:12;;;;;;;7.97;4.07;;;33.30;97.40;;;;;;6180009;23;20072;-72
2022/07/26 09:32:38;;;;;;;17.10;4.57;;;34.10;95.80;;;;;;6182209;23;20016;-72
2022/07/26 09:35:20;;;;;;;11.98;3.83;;;33.60;95.50;;;;;;6175295;23;20013;-74
2022/07/26 09:37:47;;;;;;;13.02;4.55;;;33.20;95.60;;;;;;6184845;23;20024;-73
2022/07/26 09:40:15;;;;;;;14.15;4.05;;;33.30;95.50;;;;;;6183434;23;20073;-72
2022/07/26 09:42:59;;;;;;;10.00;4.00;;;34.00;95.00;;;;;;6183512;23;20009;-73
2022/07/26 09:45:26;;;;;;;11.77;4.07;;;34.00;94.90;;;;;;6183231;23;20009;-73
2022/07/26 09:47:54;;;;;;;10.57;4.47;;;33.30;94.90;;;;;;6158003;23;20567;-71
2022/07/26 09:50:21;;;;;;;8.10;3.80;;;33.30;95.10;;;;;;6181487;23;20070;-72
2022/07/26 09:53:07;;;;;;;7.82;3.85;;;33.90;95.20;;;;;;6184100;23;20454;-74
2022/07/26 09:55:54;;;;;;;12.30;3.83;;;35.10;94.30;;;;;;6183514;23;20024;-72
2022/07/26 09:58:20;;;;;;;9.73;4.20;;;34.10;94.80;;;;;;6181837;23;20060;-75
2022/07/26 10:00:47;;;;;;;13.60;4.75;;;34.50;95.80;;;;;;6182771;23;20017;-74
2022/07/26 10:03:13;;;;;;;13.82;4.80;;;34.80;96.20;;;;;;6180326;23;20044;-72
2022/07/26 10:05:39;;;;;;;10.30;4.30;;;33.70;97.40;;;;;;6179727;23;20101;-72
2022/07/26 10:08:08;;;;;;;10.45;4.15;;;32.00;99.90;;;;;;6176700;23;20049;-73
2022/07/26 10:11:03;;;;;;;9.43;4.30;;;32.20;99.90;;;;;;6180347;23;20024;-71
2022/07/26 10:13:29;;;;;;;9.30;4.30;;;32.30;99.90;;;;;;6164824;23;20016;-72
2022/07/26 10:15:55;;;;;;;10.45;4.53;;;32.90;99.50;;;;;;6178081;23;20009;-72
2022/07/26 10:18:36;;;;;;;10.05;4.70;;;32.40;99.70;;;;;;6179216;23;20413;-72
2022/07/26 10:21:14;;;;;;;11.93;4.55;;;32.50;99.90;;;;;;6179345;23;20013;-73
2022/07/26 10:23:50;;;;;;;9.75;4.57;;;32.70;99.90;;;;;;6176299;23;20020;-72
2022/07/26 10:26:31;;;;;;;14.15;4.57;;;33.00;99.60;;;;;;6181849;23;20033;-72
2022/07/26 10:29:19;;;;;;;10.35;4.45;;;33.00;99.90;;;;;;6180127;23;20020;-73
2022/07/26 10:31:54;;;;;;;8.73;4.68;;;34.60;98.90;;;;;;6156187;23;20005;-73
2022/07/26 10:34:32;;;;;;;13.10;4.60;;;33.70;98.30;;;;;;6153948;23;20013;-73
2022/07/26 10:37:05;;;;;;;11.68;4.88;;;32.20;99.90;;;;;;6178753;23;20072;-72
2022/07/26 10:39:31;;;;;;;9.15;3.95;;;31.60;99.90;;;;;;6155896;23;20013;-71
2022/07/26 10:41:59;;;;;;;7.85;3.50;;;31.90;99.90;;;;;;6179618;23;20013;-72
2022/07/26 10:44:29;;;;;;;6.47;3.15;;;32.70;99.90;;;;;;6138038;23;20878;-71
2022/07/26 10:47:07;;;;;;;7.95;3.25;;;32.30;99.90;;;;;;6178669;23;20023;-72
2022/07/26 10:49:36;;;;;;;10.18;3.38;;;31.80;99.90;;;;;;6151108;23;20013;-72
2022/07/26 10:52:09;;;;;;;10.85;3.28;;;31.10;99.90;;;;;;6179969;23;20012;-72
2022/07/26 10:55:02;;;;;;;11.50;3.58;;;31.50;99.90;;;;;;6189476;23;20435;-73
2022/07/26 10:57:42;;;;;;;7.70;3.22;;;32.50;99.90;;;;;;6152095;23;20048;-71
2022/07/26 11:00:17;;;;;;;6.60;2.95;;;31.60;99.90;;;;;;6130053;23;20014;-72
2022/07/26 11:02:43;;;;;;;9.23;3.20;;;30.90;99.90;;;;;;6127923;23;20071;-72
2022/07/26 11:05:15;;;;;;;9.23;3.33;;;30.60;99.90;;;;;;6176846;23;20028;-72
2022/07/26 11:08:03;;;;;;;;;;;30.40;99.90;;;;;;6154807;23;20385;-72
2022/07/26 11:10:32;;;;;;;10.43;4.18;;;30.20;99.90;;;;;;6178675;23;20001;-71
2022/07/26 11:12:59;;;;;;;9.80;4.25;;;30.30;99.90;;;;;;6179591;23;20009;-71
2022/07/26 11:15:25;;;;;;;8.88;4.68;;;29.60;99.90;;;;;;6153173;23;20025;-72
2022/07/26 11:17:50;;;;;;;15.40;4.22;;;29.20;99.90;;;;;;6152688;23;20017;-71
2022/07/26 11:20:26;;;;;;;9.32;4.38;;;29.20;99.90;;;;;;6153225;23;20028;-72
2022/07/26 11:22:52;;;;;;;12.50;4.25;;;29.00;99.90;;;;;;6155114;23;20013;-71
2022/07/26 11:25:21;;;;;;;12.05;4.38;;;29.00;99.90;;;;;;6153591;23;20017;-71
2022/07/26 11:28:12;;;;;;;9.05;3.95;;;29.10;99.90;;;;;;6159384;23;20063;-73
2022/07/26 11:30:56;;;;;;;11.00;4.68;;;29.20;99.90;;;;;;6173029;23;20013;-72
2022/07/26 11:33:42;;;;;;;12.43;4.25;;;28.70;99.90;;;;;;6179721;23;20067;-71
2022/07/26 11:36:08;;;;;;;12.18;3.80;;;29.10;99.90;;;;;;6153235;23;20453;-72
2022/07/26 11:38:54;;;;;;;8.75;4.20;;;29.10;99.90;;;;;;6180162;23;20361;-72
2022/07/26 11:41:21;;;;;;;6.53;4.53;;;28.50;99.90;;;;;;6153021;23;20857;-71
2022/07/26 11:43:48;;;;;;;12.48;4.60;;;28.40;99.90;;;;;;6153947;23;20148;-71
2022/07/26 11:46:15;;;;;;;12.60;4.25;;;28.80;99.90;;;;;;6152189;23;20024;-72
2022/07/26 11:48:49;;;;;;;14.38;4.20;;;28.70;99.90;;;;;;6153517;23;20013;-72
2022/07/26 11:51:24;;;;;;;12.50;4.30;;;28.60;99.90;;;;;;6179785;23;20016;-72
2022/07/26 11:53:58;;;;;;;13.77;4.53;;;28.40;99.90;;;;;;6154380;23;20013;-71
2022/07/26 11:56:25;;;;;;;11.73;3.92;;;28.30;99.90;;;;;;6153953;23;20016;-71
2022/07/26 11:58:54;;;;;;;9.20;4.55;;;28.60;99.90;;;;;;6180227;23;20152;-72
2022/07/26 12:01:21;;;;;;;14.68;4.50;;;29.10;99.90;;;;;;6180162;23;20020;-72
2022/07/26 12:03:51;;;;;;;14.05;4.32;;;29.40;99.90;;;;;;6134989;23;20113;-73
2022/07/26 12:06:18;;;;;;;10.27;3.97;;;29.50;99.90;;;;;;6151854;23;20404;-71
2022/07/26 12:08:50;;;;;;;13.88;4.65;;;28.80;99.90;;;;;;6155813;23;20108;-72
2022/07/26 12:11:17;;;;;;;11.55;4.30;;;28.70;99.90;;;;;;6159411;23;20024;-72
2022/07/26 12:14:01;;;;;;;10.75;4.28;;;29.10;99.90;;;;;;6154510;23;20478;-72
2022/07/26 12:16:38;;;;;;;10.85;3.95;;;28.90;99.90;;;;;;6179347;23;20092;-72
2022/07/26 12:19:06;;;;;;;13.25;4.65;;;29.10;99.90;;;;;;6151440;23;20001;-71
2022/07/26 12:21:50;;;;;;;13.82;5.50;;;29.10;99.90;;;;;;6180114;23;20009;-71
2022/07/26 12:24:58;;;;;;;13.40;4.53;;;29.50;99.90;;;;;;6154507;23;20338;-72
2022/07/26 12:27:29;;;;;;;12.45;4.28;;;28.50;99.90;;;;;;6151322;23;20021;-74
2022/07/26 12:30:02;;;;;;;9.63;4.27;;;28.70;99.90;;;;;;6153692;23;20055;-71
2022/07/26 12:32:32;;;;;;;14.30;4.20;;;28.40;99.90;;;;;;6153687;23;20009;-72
2022/07/26 12:35:10;;;;;;;12.00;3.80;;;29.20;99.90;;;;;;6153836;23;20016;-73
2022/07/26 12:37:57;;;;;;;10.25;4.32;;;29.10;99.90;;;;;;6141346;23;20311;-72
2022/07/26 12:40:30;;;;;;;16.98;3.97;;;29.50;99.90;;;;;;6151247;23;20060;-72
2022/07/26 12:42:56;;;;;;;16.38;6.43;;;29.30;99.90;;;;;;6172641;23;20013;-72
2022/07/26 12:45:31;;;;;;;13.73;4.82;;;29.90;99.90;;;;;;6152187;23;20080;-74
2022/07/26 12:47:59;;;;;;;13.23;4.22;;;30.60;99.90;;;;;;6179274;23;20067;-71